Terminal Aerodrome Forecast
Issued by NWS Twin Cities, MN

Home | Current Version | Previous Version | Graphics & Text | Print | Product List | Glossary On
Versions: 1 2 3 4 5 6 7 8 9 10 11 12 13 14
000
FTUS43 KMPX 211121
TAFEAU
TAF
KEAU 211121Z 2112/2212 00000KT P6SM SKC
     FM211400 11005KT P6SM SKC
     FM211800 14009KT P6SM SKC
     FM212200 14009KT P6SM BKN035
     FM220200 15008KT P6SM SCT050 PROB30 2208/2212 -TSRA BKN050CB=

USA.gov is the U.S. government's official web portal to all federal, state and local government web resources and services.